createdAt,value
2019-05-22T00:00:02.751Z,12.60
2019-05-22T00:02:35.816Z,12.60
2019-05-22T00:05:26.495Z,12.60
2019-05-22T00:07:54.621Z,12.60
2019-05-22T00:10:25.364Z,12.50
2019-05-22T00:12:54.173Z,12.60
2019-05-22T00:15:24.182Z,12.60
2019-05-22T00:17:53.637Z,12.60
2019-05-22T00:20:22.785Z,12.60
2019-05-22T00:22:52.113Z,12.60
2019-05-22T00:25:20.169Z,12.60
2019-05-22T00:27:49.599Z,12.60
2019-05-22T00:30:17.480Z,12.60
2019-05-22T00:32:46.745Z,12.60
2019-05-22T00:35:15.878Z,12.60
2019-05-22T00:37:43.405Z,12.60
2019-05-22T00:40:14.564Z,12.60
2019-05-22T00:42:44.502Z,12.60
2019-05-22T00:45:13.952Z,12.60
2019-05-22T00:47:41.700Z,12.60
2019-05-22T00:50:12.304Z,12.50
2019-05-22T00:52:49.069Z,12.40
2019-05-22T00:55:35.811Z,12.50
2019-05-22T00:58:07.801Z,12.50
2019-05-22T01:00:42.075Z,12.50
2019-05-22T01:03:13.831Z,12.50
2019-05-22T01:05:43.043Z,12.50
2019-05-22T01:08:15.343Z,12.40
2019-05-22T01:10:43.922Z,12.50
2019-05-22T01:13:14.629Z,12.40
2019-05-22T01:15:43.140Z,12.50
2019-05-22T01:18:11.955Z,12.50
2019-05-22T01:20:41.440Z,12.40
2019-05-22T01:23:13.317Z,12.40
2019-05-22T01:25:42.623Z,12.40
2019-05-22T01:28:10.181Z,12.40
2019-05-22T01:30:46.980Z,12.40
2019-05-22T01:33:20.286Z,12.40
2019-05-22T01:35:59.473Z,12.50
2019-05-22T01:38:27.006Z,12.40
2019-05-22T01:40:58.001Z,12.40
2019-05-22T01:43:27.664Z,12.40
2019-05-22T01:45:55.710Z,12.40
2019-05-22T01:48:30.459Z,12.40
2019-05-22T01:50:57.982Z,12.40
2019-05-22T01:53:37.096Z,12.40
2019-05-22T01:56:06.930Z,12.40
2019-05-22T01:58:36.032Z,12.40
2019-05-22T02:01:08.818Z,12.40
2019-05-22T02:03:38.687Z,12.40
2019-05-22T02:06:06.915Z,12.40
2019-05-22T02:08:40.962Z,12.40
2019-05-22T02:11:13.091Z,12.30
2019-05-22T02:13:48.122Z,12.30
2019-05-22T02:16:16.321Z,12.30
2019-05-22T02:18:47.265Z,12.30
2019-05-22T02:21:15.987Z,12.30
2019-05-22T02:23:43.789Z,12.30
2019-05-22T02:26:12.936Z,12.30
2019-05-22T02:28:41.377Z,12.30
2019-05-22T02:31:11.120Z,12.30
2019-05-22T02:33:58.840Z,12.30
2019-05-22T02:39:55.257Z,12.30
2019-05-22T02:42:28.057Z,12.20
2019-05-22T02:44:57.231Z,12.20
2019-05-22T02:47:26.376Z,12.20
2019-05-22T02:49:57.039Z,12.20
2019-05-22T02:52:26.145Z,12.20
2019-05-22T02:54:54.935Z,12.20
2019-05-22T02:57:23.902Z,12.20
2019-05-22T02:59:52.754Z,12.10
2019-05-22T03:02:20.372Z,12.20
2019-05-22T03:04:57.975Z,12.20
2019-05-22T03:07:26.237Z,12.20
2019-05-22T03:09:54.088Z,12.10
2019-05-22T03:12:23.731Z,12.20
2019-05-22T03:14:51.409Z,12.10
2019-05-22T03:17:29.886Z,12.10
2019-05-22T03:19:59.298Z,12.10
2019-05-22T03:22:34.425Z,12.10
2019-05-22T03:25:05.376Z,12.10
2019-05-22T03:27:38.137Z,12.10
2019-05-22T03:30:09.621Z,12.10
2019-05-22T03:32:43.337Z,12.10
2019-05-22T03:35:07.965Z,12.10
2019-05-22T03:37:36.184Z,12.20
2019-05-22T03:40:05.256Z,12.10
2019-05-22T03:42:33.780Z,12.10
2019-05-22T03:45:01.456Z,12.20
2019-05-22T03:47:29.339Z,12.20
2019-05-22T03:49:58.100Z,12.20
2019-05-22T03:52:25.892Z,12.20
2019-05-22T03:54:55.486Z,12.20
2019-05-22T03:57:23.764Z,12.20
2019-05-22T03:59:52.417Z,12.10
2019-05-22T04:02:20.001Z,12.20
2019-05-22T04:04:48.158Z,12.10
2019-05-22T04:07:21.068Z,12.10
2019-05-22T04:09:52.117Z,12.20
2019-05-22T04:12:20.669Z,12.10
2019-05-22T04:14:48.544Z,12.10
2019-05-22T04:17:16.938Z,12.10
2019-05-22T04:19:50.607Z,12.10
2019-05-22T04:22:14.561Z,12.10
2019-05-22T04:24:42.678Z,12.10
2019-05-22T04:27:11.343Z,12.10
2019-05-22T04:29:40.228Z,12.10
2019-05-22T04:32:17.964Z,12.10
2019-05-22T04:34:46.867Z,12.10
2019-05-22T04:37:15.732Z,12.10
2019-05-22T04:39:45.596Z,12.10
2019-05-22T04:42:16.657Z,12.00
2019-05-22T04:45:07.873Z,12.00
2019-05-22T04:47:36.371Z,12.10
2019-05-22T04:50:07.951Z,12.00
2019-05-22T04:52:35.290Z,12.10
2019-05-22T04:55:03.742Z,12.00
2019-05-22T04:57:31.285Z,12.00
2019-05-22T04:59:59.077Z,12.00
2019-05-22T05:02:28.999Z,12.00
2019-05-22T05:04:58.154Z,12.00
2019-05-22T05:07:26.903Z,12.00
2019-05-22T05:09:54.877Z,12.00
2019-05-22T05:12:22.791Z,12.00
2019-05-22T05:14:50.355Z,12.00
2019-05-22T05:17:17.998Z,12.00
2019-05-22T05:19:45.789Z,12.00
2019-05-22T05:22:19.753Z,12.00
2019-05-22T05:24:47.533Z,12.00
2019-05-22T05:27:15.040Z,12.00
2019-05-22T05:29:42.964Z,12.00
2019-05-22T05:32:11.326Z,12.00
2019-05-22T05:35:00.320Z,12.00
2019-05-22T05:37:28.123Z,11.90
2019-05-22T05:40:34.410Z,12.00
2019-05-22T05:43:04.803Z,12.00
2019-05-22T05:45:33.181Z,12.00
2019-05-22T05:48:03.239Z,12.00
2019-05-22T05:50:39.463Z,12.00
2019-05-22T05:53:03.069Z,12.10
2019-05-22T05:56:00.187Z,12.10
2019-05-22T05:58:28.870Z,12.10
2019-05-22T06:01:02.426Z,12.10
2019-05-22T06:03:37.163Z,12.10
2019-05-22T06:06:53.249Z,12.10
2019-05-22T06:09:21.957Z,12.10
2019-05-22T06:11:51.609Z,12.10
2019-05-22T06:14:21.852Z,12.10
2019-05-22T06:17:34.211Z,12.10
2019-05-22T06:20:06.830Z,12.20
2019-05-22T06:22:34.388Z,12.20
2019-05-22T06:25:03.476Z,12.20
2019-05-22T06:27:43.608Z,12.30
2019-05-22T06:30:16.523Z,12.30
2019-05-22T06:33:16.844Z,12.40
2019-05-22T06:35:47.644Z,12.60
2019-05-22T06:38:44.622Z,12.60
2019-05-22T06:41:13.135Z,12.70
2019-05-22T06:44:46.983Z,12.90
2019-05-22T06:47:23.385Z,12.90
2019-05-22T06:49:53.520Z,13.00
2019-05-22T06:52:21.900Z,13.00
2019-05-22T06:54:50.562Z,13.00
2019-05-22T06:57:22.229Z,13.00
2019-05-22T07:00:10.831Z,12.90
2019-05-22T07:02:22.870Z,12.80
2019-05-22T07:04:51.491Z,12.80
2019-05-22T07:07:21.084Z,12.80
2019-05-22T07:09:49.128Z,12.80
2019-05-22T07:12:20.036Z,12.80
2019-05-22T07:15:24.843Z,12.80
2019-05-22T07:17:54.540Z,12.80
2019-05-22T07:20:23.338Z,12.90
2019-05-22T07:22:51.466Z,13.10
2019-05-22T07:25:19.480Z,13.20
2019-05-22T07:27:48.448Z,13.40
2019-05-22T07:30:16.401Z,13.50
2019-05-22T07:32:44.514Z,13.70
2019-05-22T07:35:12.556Z,13.80
2019-05-22T07:37:42.810Z,14.00
2019-05-22T07:40:10.822Z,14.00
2019-05-22T07:42:38.722Z,14.10
2019-05-22T07:45:06.764Z,14.20
2019-05-22T07:47:35.826Z,14.20
2019-05-22T07:50:03.863Z,14.20
2019-05-22T07:52:32.183Z,14.20
2019-05-22T07:55:00.523Z,14.10
2019-05-22T07:57:29.394Z,14.00
2019-05-22T07:59:57.234Z,14.00
2019-05-22T08:02:29.356Z,14.00
2019-05-22T08:04:57.319Z,14.10
2019-05-22T08:07:27.823Z,14.10
2019-05-22T08:09:56.586Z,14.20
2019-05-22T08:12:24.858Z,14.50
2019-05-22T08:14:53.266Z,14.80
2019-05-22T08:17:21.163Z,14.90
2019-05-22T08:19:48.989Z,15.00
2019-05-22T08:22:17.131Z,15.10
2019-05-22T08:24:46.214Z,15.30
2019-05-22T08:27:15.547Z,15.40
2019-05-22T08:29:44.223Z,15.30
2019-05-22T08:32:11.864Z,15.30
2019-05-22T08:34:41.592Z,15.10
2019-05-22T08:37:13.264Z,14.90
2019-05-22T08:39:40.894Z,14.90
2019-05-22T08:42:13.294Z,14.90
2019-05-22T08:44:40.850Z,14.80
2019-05-22T08:47:08.674Z,14.80
2019-05-22T08:49:38.033Z,14.70
2019-05-22T08:52:22.554Z,14.60
2019-05-22T08:54:37.894Z,14.60
2019-05-22T08:57:08.433Z,14.60
2019-05-22T08:59:36.854Z,14.80
2019-05-22T09:02:07.799Z,14.70
2019-05-22T09:04:35.459Z,14.80
2019-05-22T09:07:03.327Z,14.70
2019-05-22T09:09:30.880Z,14.60
2019-05-22T09:11:59.495Z,14.60
2019-05-22T09:14:27.025Z,14.50
2019-05-22T09:16:55.648Z,14.60
2019-05-22T09:19:23.290Z,14.70
2019-05-22T09:21:51.125Z,14.70
2019-05-22T09:24:19.273Z,14.70
2019-05-22T09:26:47.113Z,14.60
2019-05-22T09:29:15.780Z,14.70
2019-05-22T09:31:43.302Z,14.80
2019-05-22T09:34:10.883Z,14.90
2019-05-22T09:36:38.724Z,15.00
2019-05-22T09:39:06.914Z,15.00
2019-05-22T09:41:35.124Z,14.90
2019-05-22T09:44:03.392Z,15.00
2019-05-22T09:46:32.160Z,15.00
2019-05-22T09:49:00.146Z,14.90
2019-05-22T09:51:27.736Z,14.80
2019-05-22T09:53:56.410Z,14.70
2019-05-22T09:56:25.530Z,14.80
2019-05-22T09:58:53.227Z,14.80
2019-05-22T10:01:20.808Z,14.70
2019-05-22T10:03:48.342Z,14.80
2019-05-22T10:06:16.075Z,14.80
2019-05-22T10:08:43.750Z,14.80
2019-05-22T10:11:11.254Z,14.90
2019-05-22T10:13:39.003Z,14.90
2019-05-22T10:16:07.041Z,14.90
2019-05-22T10:18:35.056Z,15.00
2019-05-22T10:21:03.036Z,15.20
2019-05-22T10:23:31.543Z,15.10
2019-05-22T10:25:59.112Z,15.30
2019-05-22T10:28:27.657Z,15.30
2019-05-22T10:30:57.182Z,15.40
2019-05-22T10:33:25.800Z,15.50
2019-05-22T10:35:53.362Z,15.40
2019-05-22T10:38:21.085Z,15.60
2019-05-22T10:40:48.983Z,15.60
2019-05-22T10:43:17.423Z,15.80
2019-05-22T10:45:46.439Z,16.00
2019-05-22T10:48:14.291Z,16.00
2019-05-22T10:50:42.020Z,16.10
2019-05-22T10:53:09.814Z,16.00
2019-05-22T10:55:38.546Z,16.20
2019-05-22T10:58:07.480Z,16.40
2019-05-22T11:00:35.594Z,16.70
2019-05-22T11:03:04.097Z,16.60
2019-05-22T11:05:31.840Z,16.60
2019-05-22T11:08:00.419Z,16.50
2019-05-22T11:10:28.765Z,16.60
2019-05-22T11:12:57.210Z,16.90
2019-05-22T11:15:25.607Z,17.00
2019-05-22T11:17:53.918Z,17.10
2019-05-22T11:20:23.011Z,17.10
2019-05-22T11:22:50.984Z,17.30
2019-05-22T11:25:19.780Z,17.40
2019-05-22T11:27:47.640Z,17.30
2019-05-22T11:30:16.326Z,17.30
2019-05-22T11:32:44.413Z,17.50
2019-05-22T11:35:13.783Z,17.70
2019-05-22T11:37:41.688Z,17.90
2019-05-22T11:40:09.773Z,17.90
2019-05-22T11:42:38.025Z,17.90
2019-05-22T11:45:07.803Z,17.90
2019-05-22T11:47:35.753Z,18.00
2019-05-22T11:50:03.908Z,18.20
2019-05-22T11:52:32.231Z,18.10
2019-05-22T11:55:00.714Z,18.00
2019-05-22T11:57:29.727Z,18.20
2019-05-22T11:59:57.782Z,18.30
2019-05-22T12:02:25.877Z,18.50
2019-05-22T12:04:53.710Z,18.60
2019-05-22T12:07:21.795Z,18.70
2019-05-22T12:09:49.747Z,18.70
2019-05-22T12:12:18.256Z,18.90
2019-05-22T12:14:45.772Z,19.00
2019-05-22T12:17:14.565Z,19.10
2019-05-22T12:19:42.363Z,19.10
2019-05-22T12:22:10.127Z,19.10
2019-05-22T12:24:38.748Z,19.10
2019-05-22T12:27:07.291Z,19.20
2019-05-22T12:29:35.170Z,19.40
2019-05-22T12:32:03.629Z,19.40
2019-05-22T12:34:31.577Z,19.60
2019-05-22T12:36:59.197Z,19.60
2019-05-22T12:39:27.450Z,19.70
2019-05-22T12:41:55.679Z,19.80
2019-05-22T12:44:25.275Z,19.80
2019-05-22T12:46:52.916Z,20.00
2019-05-22T12:49:20.506Z,20.20
2019-05-22T12:51:48.870Z,20.30
2019-05-22T12:54:16.546Z,20.30
2019-05-22T12:56:44.783Z,20.30
2019-05-22T12:59:13.585Z,20.30
2019-05-22T13:01:41.811Z,20.30
2019-05-22T13:04:09.963Z,20.30
2019-05-22T13:06:37.881Z,20.40
2019-05-22T13:11:36.953Z,20.30
2019-05-22T13:14:05.056Z,20.50
2019-05-22T13:16:33.860Z,20.50
2019-05-22T13:19:01.965Z,20.50
2019-05-22T13:24:00.733Z,20.60
2019-05-22T13:26:29.286Z,20.90
2019-05-22T13:28:57.039Z,21.00
2019-05-22T13:31:24.965Z,21.40
2019-05-22T13:33:52.606Z,21.40
2019-05-22T13:36:20.864Z,21.50
2019-05-22T13:38:48.699Z,21.50
2019-05-22T13:41:16.316Z,21.60
2019-05-22T13:43:44.295Z,21.40
2019-05-22T13:46:12.564Z,21.40
2019-05-22T13:48:40.101Z,21.40
2019-05-22T13:51:08.107Z,21.60
2019-05-22T13:53:36.573Z,21.60
2019-05-22T13:56:05.709Z,21.60
2019-05-22T13:58:33.738Z,21.60
2019-05-22T14:01:01.911Z,21.60
2019-05-22T14:03:29.775Z,21.60
2019-05-22T14:05:58.626Z,21.70
2019-05-22T14:08:26.282Z,21.70
2019-05-22T14:10:54.009Z,21.80
2019-05-22T14:13:26.136Z,21.90
2019-05-22T14:15:56.950Z,21.80
2019-05-22T14:18:24.698Z,21.90
2019-05-22T14:20:52.921Z,22.10
2019-05-22T14:23:20.709Z,22.30
2019-05-22T14:25:49.463Z,22.20
2019-05-22T14:28:18.757Z,22.30
2019-05-22T14:30:46.740Z,22.30
2019-05-22T14:33:14.548Z,22.40
2019-05-22T14:35:48.723Z,22.30
2019-05-22T14:38:12.705Z,22.20
2019-05-22T14:40:41.873Z,22.20
2019-05-22T14:43:10.142Z,22.40
2019-05-22T14:45:37.634Z,22.40
2019-05-22T14:48:05.951Z,22.50
2019-05-22T14:50:33.830Z,22.80
2019-05-22T14:53:02.406Z,23.00
2019-05-22T14:55:31.827Z,22.70
2019-05-22T14:58:01.072Z,22.70
2019-05-22T15:00:28.911Z,22.80
2019-05-22T15:02:58.833Z,23.00
2019-05-22T15:05:26.332Z,22.90
2019-05-22T15:07:54.191Z,23.00
2019-05-22T15:10:22.663Z,22.90
2019-05-22T15:12:50.681Z,22.70
2019-05-22T15:15:20.677Z,22.90
2019-05-22T15:17:48.272Z,22.90
2019-05-22T15:20:18.227Z,23.20
2019-05-22T15:22:46.109Z,23.10
2019-05-22T15:25:13.820Z,23.20
2019-05-22T15:27:42.164Z,23.30
2019-05-22T15:30:11.126Z,23.20
2019-05-22T15:32:38.711Z,23.00
2019-05-22T15:35:09.334Z,23.00
2019-05-22T15:37:37.919Z,23.00
2019-05-22T15:40:07.534Z,23.00
2019-05-22T15:42:39.945Z,22.90
2019-05-22T15:45:10.414Z,23.00
2019-05-22T15:47:53.724Z,23.00
2019-05-22T15:50:11.402Z,23.10
2019-05-22T15:52:42.820Z,23.20
2019-05-22T15:55:11.575Z,23.20
2019-05-22T15:57:40.720Z,23.10
2019-05-22T16:00:11.449Z,22.70
2019-05-22T16:02:40.490Z,22.20
2019-05-22T16:05:08.143Z,21.60
2019-05-22T16:07:39.149Z,21.80
2019-05-22T16:10:07.821Z,22.00
2019-05-22T16:12:36.004Z,22.30
2019-05-22T16:15:05.531Z,22.60
2019-05-22T16:17:35.012Z,22.70
2019-05-22T16:20:02.847Z,22.90
2019-05-22T16:22:31.342Z,23.10
2019-05-22T16:25:00.059Z,23.20
2019-05-22T16:27:29.551Z,23.40
2019-05-22T16:29:59.750Z,23.90
2019-05-22T16:32:27.669Z,24.00
2019-05-22T16:34:56.204Z,24.20
2019-05-22T16:37:23.880Z,24.40
2019-05-22T16:39:51.400Z,24.50
2019-05-22T16:42:19.964Z,24.70
2019-05-22T16:44:48.082Z,24.70
2019-05-22T16:47:18.308Z,25.00
2019-05-22T16:49:47.263Z,25.20
2019-05-22T16:52:16.220Z,25.50
2019-05-22T16:54:44.665Z,26.00
2019-05-22T16:57:12.870Z,26.30
2019-05-22T16:59:41.455Z,26.10
2019-05-22T17:02:11.514Z,26.20
2019-05-22T17:04:40.162Z,26.10
2019-05-22T17:07:07.692Z,26.10
2019-05-22T17:09:38.770Z,26.40
2019-05-22T17:12:09.144Z,26.40
2019-05-22T17:14:37.301Z,26.70
2019-05-22T17:17:06.802Z,27.00
2019-05-22T17:19:34.730Z,27.30
2019-05-22T17:22:03.184Z,27.50
2019-05-22T17:24:34.111Z,27.60
2019-05-22T17:27:01.726Z,27.80
2019-05-22T17:29:31.481Z,27.70
2019-05-22T17:31:59.636Z,28.00
2019-05-22T17:34:37.172Z,28.20
2019-05-22T17:37:13.213Z,28.40
2019-05-22T17:39:44.033Z,28.60
2019-05-22T17:42:15.289Z,28.70
2019-05-22T17:44:47.675Z,28.90
2019-05-22T17:47:17.092Z,29.00
2019-05-22T17:49:45.360Z,28.80
2019-05-22T17:52:16.640Z,28.40
2019-05-22T17:54:45.527Z,28.30
2019-05-22T17:57:15.076Z,27.90
2019-05-22T17:59:43.978Z,27.50
2019-05-22T18:02:16.890Z,27.60
2019-05-22T18:04:50.716Z,27.50
2019-05-22T18:07:19.619Z,27.70
2019-05-22T18:09:47.803Z,26.80
2019-05-22T18:12:16.820Z,26.10
2019-05-22T18:14:45.082Z,26.20
2019-05-22T18:17:13.100Z,26.50
2019-05-22T18:19:41.110Z,26.60
2019-05-22T18:22:09.392Z,26.40
2019-05-22T18:24:37.395Z,25.70
2019-05-22T18:27:05.728Z,24.90
2019-05-22T18:29:33.631Z,24.00
2019-05-22T18:32:02.017Z,23.30
2019-05-22T18:34:29.603Z,22.90
2019-05-22T18:36:57.266Z,22.20
2019-05-22T18:39:24.938Z,21.70
2019-05-22T18:41:53.088Z,21.40
2019-05-22T18:44:21.300Z,21.10
2019-05-22T18:46:49.169Z,20.80
2019-05-22T18:49:16.730Z,20.30
2019-05-22T18:51:45.007Z,20.00
2019-05-22T18:54:12.812Z,19.60
2019-05-22T18:56:40.648Z,19.20
2019-05-22T18:59:08.461Z,18.90
2019-05-22T19:01:35.878Z,18.50
2019-05-22T19:04:03.421Z,18.10
2019-05-22T19:06:31.226Z,17.90
2019-05-22T19:08:58.854Z,17.60
2019-05-22T19:11:26.553Z,17.30
2019-05-22T19:13:54.367Z,17.10
2019-05-22T19:16:23.013Z,16.90
2019-05-22T19:18:50.558Z,16.70
2019-05-22T19:21:18.400Z,16.50
2019-05-22T19:23:46.295Z,16.40
2019-05-22T19:26:14.179Z,16.20
2019-05-22T19:28:44.154Z,16.10
2019-05-22T19:31:11.834Z,16.00
2019-05-22T19:33:39.988Z,15.90
2019-05-22T19:36:08.471Z,15.80
2019-05-22T19:38:36.152Z,15.60
2019-05-22T19:41:04.601Z,15.50
2019-05-22T19:43:32.872Z,15.00
2019-05-22T19:46:01.119Z,14.80
2019-05-22T19:48:28.996Z,14.70
2019-05-22T19:50:57.436Z,14.30
2019-05-22T19:53:26.114Z,13.90
2019-05-22T19:55:54.014Z,13.80
2019-05-22T19:58:22.497Z,13.80
2019-05-22T20:00:50.704Z,13.70
2019-05-22T20:03:18.577Z,13.70
2019-05-22T20:05:46.953Z,13.60
2019-05-22T20:08:14.939Z,13.50
2019-05-22T20:10:43.848Z,13.40
2019-05-22T20:13:12.686Z,13.40
2019-05-22T20:15:41.814Z,13.30
2019-05-22T20:18:10.356Z,13.40
2019-05-22T20:20:38.839Z,13.10
2019-05-22T20:23:08.808Z,13.00
2019-05-22T20:25:39.277Z,13.10
2019-05-22T20:28:10.096Z,13.10
2019-05-22T20:30:39.182Z,13.20
2019-05-22T20:33:09.618Z,13.20
2019-05-22T20:35:37.675Z,13.10
2019-05-22T20:38:06.995Z,13.10
2019-05-22T20:40:36.777Z,13.10
2019-05-22T20:43:08.564Z,13.20
2019-05-22T20:45:44.830Z,13.10
2019-05-22T20:48:21.255Z,13.00
2019-05-22T20:50:50.422Z,13.00
2019-05-22T20:53:21.516Z,12.90
2019-05-22T20:55:50.542Z,12.90
2019-05-22T20:58:20.696Z,12.80
2019-05-22T21:00:51.127Z,12.80
2019-05-22T21:03:21.371Z,12.90
2019-05-22T21:05:50.837Z,12.80
2019-05-22T21:08:21.484Z,12.70
2019-05-22T21:10:50.921Z,12.60
2019-05-22T21:13:19.412Z,12.60
2019-05-22T21:15:50.351Z,12.50
2019-05-22T21:18:21.293Z,12.50
2019-05-22T21:20:55.019Z,12.40
2019-05-22T21:23:22.649Z,12.40
2019-05-22T21:25:51.259Z,12.20
2019-05-22T21:28:20.014Z,12.10
2019-05-22T21:30:51.522Z,11.90
2019-05-22T21:33:20.223Z,11.90
2019-05-22T21:35:49.134Z,11.80
2019-05-22T21:38:19.221Z,11.70
2019-05-22T21:40:51.160Z,11.60
2019-05-22T21:43:22.487Z,11.60
2019-05-22T21:45:50.840Z,11.60
2019-05-22T21:48:20.356Z,11.50
2019-05-22T21:50:49.198Z,11.50
2019-05-22T21:53:17.499Z,11.50
2019-05-22T21:55:46.257Z,11.50
2019-05-22T21:58:14.733Z,11.50
2019-05-22T22:01:10.904Z,11.50
2019-05-22T22:03:43.291Z,11.40
2019-05-22T22:06:12.029Z,11.40
2019-05-22T22:08:39.730Z,11.30
2019-05-22T22:11:08.282Z,11.30
2019-05-22T22:13:37.571Z,11.30
2019-05-22T22:16:05.929Z,11.10
2019-05-22T22:18:33.751Z,11.00
2019-05-22T22:21:01.607Z,11.10
2019-05-22T22:23:30.244Z,11.00
2019-05-22T22:25:58.184Z,11.00
2019-05-22T22:28:26.557Z,10.90
2019-05-22T22:30:56.383Z,10.90
2019-05-22T22:33:28.374Z,10.90
2019-05-22T22:35:56.445Z,10.80
2019-05-22T22:38:26.293Z,10.80
2019-05-22T22:40:55.048Z,10.80
2019-05-22T22:43:27.820Z,10.80
2019-05-22T22:46:04.120Z,10.70
2019-05-22T22:48:34.608Z,10.70
2019-05-22T22:51:06.027Z,10.70
2019-05-22T22:53:33.950Z,10.70
2019-05-22T22:56:01.875Z,10.70
2019-05-22T22:58:29.727Z,10.70
2019-05-22T23:00:59.739Z,10.70
2019-05-22T23:03:27.949Z,10.70
2019-05-22T23:05:57.425Z,10.50
2019-05-22T23:08:28.989Z,10.50
2019-05-22T23:10:57.068Z,10.50
2019-05-22T23:13:24.661Z,10.50
2019-05-22T23:15:52.901Z,10.50
2019-05-22T23:19:04.163Z,10.60
2019-05-22T23:21:32.688Z,10.60
2019-05-22T23:23:59.940Z,10.60
2019-05-22T23:26:28.171Z,10.60
2019-05-22T23:28:56.644Z,10.60
2019-05-22T23:31:24.236Z,10.50
2019-05-22T23:33:52.980Z,10.50
2019-05-22T23:36:21.526Z,10.50
2019-05-22T23:38:51.070Z,10.50
2019-05-22T23:41:20.078Z,10.50
2019-05-22T23:43:48.603Z,10.40
2019-05-22T23:46:16.422Z,10.50
2019-05-22T23:48:44.593Z,10.50
2019-05-22T23:51:12.317Z,10.40
2019-05-22T23:53:41.527Z,10.50
2019-05-22T23:56:10.290Z,10.50
2019-05-22T23:58:52.073Z,10.50
